createdAt,value
2022-12-15T00:02:19.879Z,42.33
2022-12-15T00:05:06.771Z,38.93
2022-12-15T00:07:53.149Z,35.83
2022-12-15T00:10:39.359Z,41.63
2022-12-15T00:13:32.859Z,45.33
2022-12-15T00:16:18.960Z,42.23
2022-12-15T00:19:04.211Z,39.57
2022-12-15T00:21:50.204Z,47.33
2022-12-15T00:24:35.949Z,40.70
2022-12-15T00:27:22.285Z,39.20
2022-12-15T00:30:08.089Z,47.60
2022-12-15T00:32:53.696Z,44.57
2022-12-15T00:35:38.984Z,41.17
2022-12-15T00:38:29.215Z,48.60
2022-12-15T00:40:59.759Z,46.50
2022-12-15T00:43:29.670Z,45.20
2022-12-15T00:46:15.916Z,35.73
2022-12-15T00:48:43.484Z,38.63
2022-12-15T00:51:10.788Z,44.87
2022-12-15T00:53:56.973Z,44.27
2022-12-15T00:56:43.289Z,42.63
2022-12-15T00:59:31.037Z,37.93
2022-12-15T01:02:16.840Z,43.00
2022-12-15T01:05:02.667Z,42.37
2022-12-15T01:07:49.522Z,45.00
2022-12-15T01:10:37.453Z,48.03
2022-12-15T01:13:23.830Z,41.93
2022-12-15T01:16:09.818Z,40.80
2022-12-15T01:18:55.478Z,42.47
2022-12-15T01:21:25.056Z,38.93
2022-12-15T01:23:53.204Z,42.80
2022-12-15T01:26:20.302Z,43.83
2022-12-15T01:28:47.210Z,35.07
2022-12-15T01:31:14.761Z,49.40
2022-12-15T01:33:43.489Z,40.70
2022-12-15T01:36:11.509Z,42.77
2022-12-15T01:38:38.789Z,39.97
2022-12-15T01:41:09.804Z,41.07
2022-12-15T01:43:40.139Z,36.40
2022-12-15T01:46:11.031Z,34.43
2022-12-15T01:48:57.561Z,26.60
2022-12-15T01:51:32.641Z,36.17
2022-12-15T01:54:18.408Z,45.53
2022-12-15T01:56:56.973Z,37.27
2022-12-15T01:59:34.102Z,40.03
2022-12-15T02:02:02.313Z,31.10
2022-12-15T02:04:30.380Z,37.43
2022-12-15T02:06:57.772Z,38.27
2022-12-15T02:09:27.096Z,48.17
2022-12-15T02:12:05.831Z,46.93
2022-12-15T02:15:19.532Z,37.07
2022-12-15T02:18:13.099Z,42.93
2022-12-15T02:21:01.543Z,37.17
2022-12-15T02:24:00.317Z,40.87
2022-12-15T02:26:55.517Z,46.00
2022-12-15T02:29:48.544Z,37.37
2022-12-15T02:32:22.145Z,46.60
2022-12-15T02:35:03.951Z,46.13
2022-12-15T02:37:34.958Z,44.03
2022-12-15T02:40:03.455Z,37.03
2022-12-15T02:42:32.279Z,38.33
2022-12-15T02:45:10.960Z,41.33
2022-12-15T02:47:48.603Z,34.87
2022-12-15T02:50:51.388Z,37.33
2022-12-15T02:53:50.877Z,32.97
2022-12-15T02:57:00.004Z,47.93
2022-12-15T02:59:55.618Z,37.87
2022-12-15T03:02:26.690Z,37.50
2022-12-15T03:04:54.292Z,39.43
2022-12-15T03:07:27.750Z,43.50
2022-12-15T03:10:01.696Z,38.93
2022-12-15T03:12:29.068Z,40.30
2022-12-15T03:14:56.038Z,36.17
2022-12-15T03:17:23.200Z,41.67
2022-12-15T03:19:50.141Z,42.70
2022-12-15T03:22:17.225Z,42.43
2022-12-15T03:24:44.623Z,42.57
2022-12-15T03:27:12.251Z,39.57
2022-12-15T03:29:39.219Z,37.10
2022-12-15T03:32:07.064Z,39.97
2022-12-15T03:34:34.065Z,38.30
2022-12-15T03:37:01.105Z,34.37
2022-12-15T03:39:28.169Z,38.70
2022-12-15T03:41:55.143Z,45.43
2022-12-15T03:44:46.192Z,43.47
2022-12-15T03:47:13.589Z,36.20
2022-12-15T03:50:07.530Z,39.77
2022-12-15T03:52:34.539Z,52.23
2022-12-15T03:55:02.181Z,50.87
2022-12-15T03:57:29.160Z,51.77
2022-12-15T03:59:56.551Z,44.20
2022-12-15T04:02:23.768Z,43.17
2022-12-15T04:04:51.358Z,39.80
2022-12-15T04:07:18.736Z,48.47
2022-12-15T04:09:45.686Z,39.00
2022-12-15T04:12:12.955Z,41.77
2022-12-15T04:14:42.518Z,40.57
2022-12-15T04:17:12.827Z,37.83
2022-12-15T04:19:58.139Z,36.00
2022-12-15T04:22:25.538Z,47.50
2022-12-15T04:25:11.388Z,41.10
2022-12-15T04:28:01.494Z,41.27
2022-12-15T04:30:48.896Z,38.43
2022-12-15T04:33:35.690Z,47.20
2022-12-15T04:36:21.777Z,41.87
2022-12-15T04:39:07.698Z,41.43
2022-12-15T04:41:53.686Z,40.50
2022-12-15T04:44:39.475Z,42.43
2022-12-15T04:47:24.954Z,39.40
2022-12-15T04:50:10.668Z,46.17
2022-12-15T04:52:56.588Z,42.73
2022-12-15T04:55:41.895Z,46.33
2022-12-15T04:58:28.110Z,41.07
2022-12-15T05:01:17.113Z,35.23
2022-12-15T05:04:03.066Z,45.73
2022-12-15T05:06:48.861Z,46.30
2022-12-15T05:09:34.281Z,45.90
2022-12-15T05:12:20.211Z,46.33
2022-12-15T05:15:05.832Z,51.47
2022-12-15T05:17:51.754Z,41.40
2022-12-15T05:20:37.570Z,42.83
2022-12-15T05:23:23.624Z,45.60
2022-12-15T05:26:09.000Z,40.90
2022-12-15T05:28:54.918Z,46.50
2022-12-15T05:31:40.094Z,41.83
2022-12-15T05:34:07.570Z,45.13
2022-12-15T05:36:34.591Z,39.23
2022-12-15T05:39:01.621Z,52.40
2022-12-15T05:41:29.001Z,42.53
2022-12-15T05:43:55.981Z,49.53
2022-12-15T05:46:23.094Z,40.00
2022-12-15T05:48:50.495Z,37.90
2022-12-15T05:51:17.964Z,38.83
2022-12-15T05:53:44.924Z,41.60
2022-12-15T05:56:14.945Z,53.23
2022-12-15T05:58:45.325Z,39.63
2022-12-15T06:01:19.349Z,46.80
2022-12-15T06:03:46.473Z,43.17
2022-12-15T06:06:17.125Z,46.73
2022-12-15T06:08:44.661Z,41.20
2022-12-15T06:11:17.186Z,41.13
2022-12-15T06:13:44.809Z,39.50
2022-12-15T06:16:18.952Z,39.10
2022-12-15T06:18:50.532Z,46.77
2022-12-15T06:21:26.988Z,47.97
2022-12-15T06:23:56.559Z,44.37
2022-12-15T06:26:27.641Z,42.03
2022-12-15T06:28:57.773Z,41.67
2022-12-15T06:31:26.013Z,44.13
2022-12-15T06:34:00.981Z,32.07
2022-12-15T06:36:30.852Z,44.07
2022-12-15T06:39:06.828Z,41.90
2022-12-15T06:41:34.789Z,35.00
2022-12-15T06:44:02.277Z,54.47
2022-12-15T06:46:32.101Z,40.10
2022-12-15T06:48:59.566Z,52.60
2022-12-15T06:51:27.894Z,40.03
2022-12-15T06:53:56.148Z,41.93
2022-12-15T06:56:34.042Z,40.07
2022-12-15T06:59:03.532Z,37.27
2022-12-15T07:01:31.689Z,42.27
2022-12-15T07:04:01.452Z,37.93
2022-12-15T07:06:36.308Z,40.47
2022-12-15T07:09:07.464Z,39.00
2022-12-15T07:11:35.170Z,38.40
2022-12-15T07:14:03.137Z,35.57
2022-12-15T07:16:31.137Z,43.67
2022-12-15T07:18:58.339Z,45.53
2022-12-15T07:21:25.312Z,47.53
2022-12-15T07:23:55.205Z,33.60
2022-12-15T07:26:24.322Z,47.30
2022-12-15T07:28:52.956Z,43.00
2022-12-15T07:31:20.032Z,43.13
2022-12-15T07:33:48.493Z,46.30
2022-12-15T07:36:16.408Z,44.63
2022-12-15T07:38:50.019Z,50.73
2022-12-15T07:41:19.884Z,41.30
2022-12-15T07:43:48.314Z,45.00
2022-12-15T07:46:16.645Z,34.37
2022-12-15T07:48:50.706Z,38.70
2022-12-15T07:51:20.367Z,44.70
2022-12-15T07:53:50.068Z,44.37
2022-12-15T07:56:17.783Z,47.03
2022-12-15T07:58:45.002Z,43.57
2022-12-15T08:01:14.011Z,41.33
2022-12-15T08:03:41.744Z,40.40
2022-12-15T08:06:11.946Z,43.07
2022-12-15T08:08:40.300Z,46.07
2022-12-15T08:11:10.331Z,44.93
2022-12-15T08:14:01.908Z,41.70
2022-12-15T08:16:26.467Z,44.43
2022-12-15T08:18:53.895Z,38.03
2022-12-15T08:21:20.975Z,41.90
2022-12-15T08:23:48.449Z,42.40
2022-12-15T08:26:18.008Z,39.77
2022-12-15T08:28:45.961Z,40.57
2022-12-15T08:31:20.659Z,49.23
2022-12-15T08:33:49.279Z,44.13
2022-12-15T08:36:18.532Z,34.47
2022-12-15T08:38:46.395Z,41.97
2022-12-15T08:41:29.051Z,38.63
2022-12-15T08:43:58.628Z,37.57
2022-12-15T08:46:34.132Z,46.97
2022-12-15T08:49:03.084Z,48.07
2022-12-15T08:51:32.714Z,46.20
2022-12-15T08:54:00.761Z,43.47
2022-12-15T08:56:29.041Z,41.30
2022-12-15T08:59:01.713Z,46.70
2022-12-15T09:01:32.179Z,46.90
2022-12-15T09:04:01.424Z,53.40
2022-12-15T09:06:33.400Z,45.10
2022-12-15T09:09:07.303Z,42.30
2022-12-15T09:11:35.217Z,50.03
2022-12-15T09:14:02.583Z,40.60
2022-12-15T09:16:30.191Z,40.13
2022-12-15T09:18:59.646Z,39.70
2022-12-15T09:21:29.469Z,43.70
2022-12-15T09:24:01.839Z,36.63
2022-12-15T09:26:33.370Z,44.73
2022-12-15T09:29:02.000Z,42.17
2022-12-15T09:31:37.365Z,42.27
2022-12-15T09:34:04.772Z,45.17
2022-12-15T09:36:33.019Z,46.27
2022-12-15T09:39:02.330Z,50.23
2022-12-15T09:41:35.082Z,39.47
2022-12-15T09:44:20.648Z,49.50
2022-12-15T09:47:34.669Z,35.07
2022-12-15T09:50:06.357Z,43.77
2022-12-15T09:52:53.689Z,43.33
2022-12-15T09:55:32.997Z,39.57
2022-12-15T09:58:18.100Z,39.30
2022-12-15T10:00:56.953Z,33.00
2022-12-15T10:03:36.501Z,40.60
2022-12-15T10:06:16.442Z,38.13
2022-12-15T10:08:56.398Z,35.43
2022-12-15T10:11:38.901Z,36.53
2022-12-15T10:17:03.108Z,32.60
2022-12-15T10:19:50.026Z,35.57
2022-12-15T10:22:27.729Z,44.40
2022-12-15T10:25:11.446Z,38.87
2022-12-15T10:28:18.979Z,34.80
2022-12-15T10:31:02.376Z,35.13
2022-12-15T10:33:38.414Z,37.27
2022-12-15T10:36:12.024Z,34.63
2022-12-15T10:38:43.562Z,36.00
2022-12-15T10:41:24.033Z,37.77
2022-12-15T10:43:53.785Z,39.80
2022-12-15T10:46:28.117Z,37.33
2022-12-15T10:49:23.227Z,37.07
2022-12-15T10:51:57.273Z,43.37
2022-12-15T10:54:35.672Z,32.63
2022-12-15T10:57:31.468Z,38.67
2022-12-15T11:00:13.585Z,39.07
2022-12-15T11:02:42.271Z,39.13
2022-12-15T11:05:15.695Z,34.13
2022-12-15T11:07:50.935Z,41.00
2022-12-15T11:10:50.278Z,42.27
2022-12-15T11:13:23.520Z,41.33
2022-12-15T11:15:56.473Z,47.83
2022-12-15T11:18:38.039Z,34.50
2022-12-15T11:21:12.689Z,37.60
2022-12-15T11:24:11.993Z,43.13
2022-12-15T11:27:19.786Z,38.20
2022-12-15T11:30:14.792Z,50.10
2022-12-15T11:32:47.165Z,33.97
2022-12-15T11:35:25.869Z,30.83
2022-12-15T11:38:21.993Z,35.80
2022-12-15T11:40:50.482Z,38.40
2022-12-15T11:44:06.463Z,34.43
2022-12-15T11:46:52.864Z,33.10
2022-12-15T11:49:41.478Z,36.67
2022-12-15T11:52:54.597Z,37.93
2022-12-15T11:55:30.405Z,36.60
2022-12-15T11:58:32.651Z,30.27
2022-12-15T12:01:33.053Z,39.53
2022-12-15T12:04:30.725Z,41.33
2022-12-15T12:07:16.466Z,49.17
2022-12-15T12:10:27.392Z,49.07
2022-12-15T12:13:30.592Z,43.87
2022-12-15T12:16:34.700Z,36.17
2022-12-15T12:19:06.675Z,41.13
2022-12-15T12:21:51.273Z,38.38
2022-12-15T12:24:51.165Z,42.63
2022-12-15T12:27:48.739Z,41.20
2022-12-15T12:30:21.640Z,37.47
2022-12-15T12:33:00.231Z,57.63
2022-12-15T12:35:46.967Z,45.13
2022-12-15T12:38:30.047Z,36.03
2022-12-15T12:41:13.740Z,45.67
2022-12-15T12:43:50.174Z,42.23
2022-12-15T12:46:27.655Z,34.97
2022-12-15T12:49:11.944Z,45.80
2022-12-15T12:51:49.646Z,34.60
2022-12-15T12:54:41.901Z,38.97
2022-12-15T12:57:11.830Z,39.50
2022-12-15T12:59:51.733Z,41.37
2022-12-15T13:02:21.642Z,50.30
2022-12-15T13:05:20.708Z,44.20
2022-12-15T13:08:17.259Z,43.70
2022-12-15T13:10:50.846Z,41.17
2022-12-15T13:13:30.187Z,47.17
2022-12-15T13:16:25.951Z,46.73
2022-12-15T13:18:58.621Z,34.27
2022-12-15T13:21:44.250Z,37.53
2022-12-15T13:24:41.710Z,28.33
2022-12-15T13:27:11.970Z,37.50
2022-12-15T13:30:13.217Z,48.73
2022-12-15T13:32:44.104Z,35.00
2022-12-15T13:35:12.307Z,36.72
2022-12-15T13:38:07.323Z,41.43
2022-12-15T13:40:37.960Z,31.97
2022-12-15T13:43:05.204Z,38.40
2022-12-15T13:45:52.233Z,38.87
2022-12-15T13:48:38.087Z,35.03
2022-12-15T13:51:30.077Z,34.03
2022-12-15T13:54:04.088Z,35.53
2022-12-15T13:56:50.752Z,33.57
2022-12-15T13:59:37.751Z,36.40
2022-12-15T14:02:34.321Z,35.40
2022-12-15T14:05:22.930Z,31.57
2022-12-15T14:07:58.089Z,33.03
2022-12-15T14:10:44.395Z,38.43
2022-12-15T14:13:18.508Z,41.53
2022-12-15T14:15:56.670Z,32.60
2022-12-15T14:18:25.929Z,35.20
2022-12-15T14:20:53.379Z,37.70
2022-12-15T14:23:40.520Z,34.97
2022-12-15T14:26:13.523Z,40.30
2022-12-15T14:28:45.468Z,26.90
2022-12-15T14:31:20.409Z,26.73
2022-12-15T14:33:51.515Z,30.37
2022-12-15T14:36:20.924Z,29.73
2022-12-15T14:38:55.420Z,33.43
2022-12-15T14:41:33.602Z,32.43
2022-12-15T14:44:36.222Z,35.87
2022-12-15T14:47:00.566Z,34.50
2022-12-15T14:49:32.591Z,33.27
2022-12-15T14:52:05.942Z,33.22
2022-12-15T14:54:38.303Z,28.93
2022-12-15T14:59:45.797Z,29.07
2022-12-15T15:02:30.125Z,26.17
2022-12-15T15:05:07.740Z,33.83
2022-12-15T15:07:38.032Z,27.70
2022-12-15T15:10:28.642Z,35.13
2022-12-15T15:12:56.161Z,28.97
2022-12-15T15:15:26.809Z,24.67
2022-12-15T15:18:00.359Z,25.13
2022-12-15T15:20:30.656Z,30.10
2022-12-15T15:23:18.492Z,29.03
2022-12-15T15:25:52.464Z,27.90
2022-12-15T15:28:19.199Z,32.47
2022-12-15T15:30:57.834Z,40.07
2022-12-15T15:33:26.461Z,38.23
2022-12-15T15:35:57.796Z,36.70
2022-12-15T15:38:33.332Z,33.27
2022-12-15T15:41:14.354Z,26.77
2022-12-15T15:43:41.804Z,25.07
2022-12-15T15:46:14.872Z,27.77
2022-12-15T15:48:51.140Z,31.83
2022-12-15T15:51:18.944Z,29.90
2022-12-15T15:53:46.559Z,33.57
2022-12-15T15:56:16.874Z,26.90
2022-12-15T15:58:44.308Z,33.70
2022-12-15T16:01:13.533Z,30.37
2022-12-15T16:03:41.748Z,23.97
2022-12-15T16:06:18.713Z,29.47
2022-12-15T16:08:49.504Z,38.80
2022-12-15T16:11:16.737Z,24.53
2022-12-15T16:13:47.697Z,27.70
2022-12-15T16:16:20.374Z,29.43
2022-12-15T16:18:47.877Z,31.87
2022-12-15T16:21:15.839Z,28.47
2022-12-15T16:23:46.372Z,29.43
2022-12-15T16:26:28.031Z,27.50
2022-12-15T16:28:55.326Z,33.17
2022-12-15T16:31:41.823Z,28.70
2022-12-15T16:34:09.128Z,25.27
2022-12-15T16:36:36.282Z,30.20
2022-12-15T16:39:03.967Z,34.53
2022-12-15T16:41:31.438Z,28.40
2022-12-15T16:43:58.798Z,32.87
2022-12-15T16:46:26.186Z,25.60
2022-12-15T16:48:53.591Z,29.70
2022-12-15T16:51:40.706Z,33.67
2022-12-15T16:54:14.512Z,27.70
2022-12-15T16:56:44.609Z,31.53
2022-12-15T16:59:34.644Z,36.33
2022-12-15T17:02:33.390Z,31.33
2022-12-15T17:05:01.624Z,32.10
2022-12-15T17:07:29.368Z,33.03
2022-12-15T17:09:56.839Z,33.13
2022-12-15T17:12:23.820Z,31.50
2022-12-15T17:14:51.228Z,33.83
2022-12-15T17:17:19.894Z,27.20
2022-12-15T17:22:34.385Z,30.53
2022-12-15T17:25:01.884Z,31.73
2022-12-15T17:27:29.847Z,32.50
2022-12-15T17:29:59.972Z,32.30
2022-12-15T17:32:26.943Z,34.40
2022-12-15T17:34:53.956Z,26.60
2022-12-15T17:37:21.476Z,30.37
2022-12-15T17:39:51.391Z,26.73
2022-12-15T17:42:20.536Z,28.37
2022-12-15T17:44:48.789Z,24.97
2022-12-15T17:47:16.970Z,29.67
2022-12-15T17:49:44.417Z,20.47
2022-12-15T17:52:43.273Z,30.80
2022-12-15T17:55:24.283Z,29.37
2022-12-15T17:57:54.652Z,33.33
2022-12-15T18:00:30.621Z,27.93
2022-12-15T18:03:00.454Z,31.60
2022-12-15T18:05:31.076Z,33.97
2022-12-15T18:08:01.705Z,34.30
2022-12-15T18:10:36.685Z,35.57
2022-12-15T18:13:20.998Z,27.30
2022-12-15T18:15:49.075Z,29.80
2022-12-15T18:18:17.920Z,30.57
2022-12-15T18:20:45.646Z,30.63
2022-12-15T18:23:22.387Z,33.90
2022-12-15T18:25:50.476Z,33.77
2022-12-15T18:28:28.335Z,30.17
2022-12-15T18:31:04.708Z,30.97
2022-12-15T18:33:32.130Z,28.73
2022-12-15T18:35:59.357Z,30.30
2022-12-15T18:38:28.943Z,21.43
2022-12-15T18:40:59.216Z,33.07
2022-12-15T18:43:30.051Z,27.57
2022-12-15T18:45:57.249Z,32.30
2022-12-15T18:48:29.467Z,29.90
2022-12-15T18:50:59.798Z,30.80
2022-12-15T18:53:36.568Z,35.80
2022-12-15T18:56:06.549Z,33.33
2022-12-15T18:58:36.810Z,22.90
2022-12-15T19:01:05.646Z,36.70
2022-12-15T19:03:34.168Z,28.80
2022-12-15T19:06:35.871Z,25.43
2022-12-15T19:09:14.420Z,32.97
2022-12-15T19:12:01.626Z,27.57
2022-12-15T19:14:41.110Z,30.77
2022-12-15T19:17:33.415Z,29.83
2022-12-15T19:20:19.853Z,28.10
2022-12-15T19:22:48.521Z,32.13
2022-12-15T19:25:25.984Z,31.93
2022-12-15T19:28:00.477Z,32.20
2022-12-15T19:30:36.935Z,35.10
2022-12-15T19:33:07.884Z,31.47
2022-12-15T19:35:35.878Z,29.13
2022-12-15T19:38:04.401Z,34.27
2022-12-15T19:40:34.897Z,36.57
2022-12-15T19:43:04.182Z,26.43
2022-12-15T19:45:32.871Z,33.43
2022-12-15T19:48:00.246Z,36.87
2022-12-15T19:50:36.899Z,31.77
2022-12-15T19:53:22.557Z,24.17
2022-12-15T19:55:49.916Z,28.43
2022-12-15T19:58:35.269Z,21.13
2022-12-15T20:01:07.165Z,21.93
2022-12-15T20:03:35.232Z,34.80
2022-12-15T20:06:04.004Z,31.00
2022-12-15T20:08:37.182Z,31.83
2022-12-15T20:11:05.098Z,28.67
2022-12-15T20:13:32.408Z,32.40
2022-12-15T20:15:59.959Z,24.83
2022-12-15T20:18:26.839Z,30.17
2022-12-15T20:20:53.893Z,24.07
2022-12-15T20:23:27.785Z,20.30
2022-12-15T20:25:56.258Z,36.67
2022-12-15T20:28:27.264Z,34.30
2022-12-15T20:30:56.388Z,26.77
2022-12-15T20:33:23.761Z,30.20
2022-12-15T20:35:51.562Z,28.60
2022-12-15T20:38:28.071Z,35.63
2022-12-15T20:40:56.345Z,27.80
2022-12-15T20:43:24.963Z,42.47
2022-12-15T20:46:03.223Z,31.67
2022-12-15T20:48:30.648Z,33.90
2022-12-15T20:50:57.614Z,32.33
2022-12-15T20:53:26.519Z,34.00
2022-12-15T20:55:56.417Z,31.33
2022-12-15T20:58:27.053Z,36.83
2022-12-15T21:00:57.274Z,35.63
2022-12-15T21:03:31.182Z,31.87
2022-12-15T21:05:59.521Z,32.17
2022-12-15T21:08:30.996Z,31.40
2022-12-15T21:11:30.601Z,24.95
2022-12-15T21:14:03.880Z,30.90
2022-12-15T21:16:32.577Z,33.83
2022-12-15T21:19:19.641Z,30.00
2022-12-15T21:21:51.998Z,25.50
2022-12-15T21:24:25.463Z,35.90
2022-12-15T21:26:53.538Z,23.90
2022-12-15T21:29:24.704Z,27.73
2022-12-15T21:31:51.855Z,29.10
2022-12-15T21:34:18.774Z,27.40
2022-12-15T21:36:50.098Z,36.87
2022-12-15T21:39:36.495Z,26.90
2022-12-15T21:42:11.217Z,35.63
2022-12-15T21:44:38.103Z,28.50
2022-12-15T21:47:51.914Z,31.80
2022-12-15T21:50:19.863Z,36.63
2022-12-15T21:52:47.572Z,29.83
2022-12-15T21:55:21.262Z,33.13
2022-12-15T21:57:48.205Z,29.93
2022-12-15T22:00:18.258Z,30.57
2022-12-15T22:02:47.107Z,28.97
2022-12-15T22:05:30.332Z,26.83
2022-12-15T22:08:21.966Z,31.33
2022-12-15T22:10:50.885Z,28.53
2022-12-15T22:13:23.208Z,37.93
2022-12-15T22:15:50.958Z,38.90
2022-12-15T22:18:22.553Z,42.63
2022-12-15T22:21:10.293Z,30.77
2022-12-15T22:23:38.055Z,39.43
2022-12-15T22:26:05.383Z,30.00
2022-12-15T22:28:33.954Z,35.17
2022-12-15T22:31:03.231Z,29.60
2022-12-15T22:33:31.599Z,32.70
2022-12-15T22:35:58.837Z,27.53
2022-12-15T22:38:25.842Z,38.20
2022-12-15T22:40:56.246Z,31.13
2022-12-15T22:43:25.087Z,33.10
2022-12-15T22:45:55.119Z,33.50
2022-12-15T22:48:25.827Z,39.57
2022-12-15T22:50:53.148Z,35.13
2022-12-15T22:53:22.815Z,31.30
2022-12-15T22:55:51.038Z,31.43
2022-12-15T22:58:45.971Z,33.87
2022-12-15T23:01:13.130Z,40.97
2022-12-15T23:03:40.404Z,28.67
2022-12-15T23:06:07.811Z,39.10
2022-12-15T23:08:34.707Z,36.17
2022-12-15T23:11:20.556Z,38.53
2022-12-15T23:13:47.438Z,37.73
2022-12-15T23:16:21.477Z,49.30
2022-12-15T23:18:54.832Z,41.23
2022-12-15T23:21:23.701Z,47.00
2022-12-15T23:23:51.484Z,39.47
2022-12-15T23:26:22.848Z,39.03
2022-12-15T23:28:50.040Z,36.13
2022-12-15T23:31:18.024Z,34.77
2022-12-15T23:33:45.173Z,43.53
2022-12-15T23:36:12.858Z,42.97
2022-12-15T23:38:40.628Z,38.83
2022-12-15T23:41:08.054Z,33.10
2022-12-15T23:43:35.542Z,46.63
2022-12-15T23:46:06.262Z,41.77
2022-12-15T23:48:41.506Z,34.23
2022-12-15T23:51:17.731Z,40.93
2022-12-15T23:53:46.473Z,38.50
2022-12-15T23:56:23.576Z,32.13
2022-12-15T23:58:59.070Z,40.53
